Time;durP1;ratioP1;P1;durP2;ratioP2;P2;SDS_P1;SDS_P2;PMS_P1;PMS_P2;Temp;Humidity;BMP_temperature;BMP_pressure;BME280_temperature;BME280_humidity;BME280_pressure;Samples;Min_cycle;Max_cycle;Signal;HPM_P1;HPM_P2
2022/12/29 00:01:30;;;;;;;3.30;2.50;;;-0.10;99.90;;;;;;5090666;28;20952;-49
2022/12/29 00:03:57;;;;;;;3.57;3.23;;;0.20;99.90;;;;;;5091335;28;20955;-48
2022/12/29 00:06:25;;;;;;;4.30;3.10;;;0.30;99.90;;;;;;5090898;28;20475;-49
2022/12/29 00:08:52;;;;;;;8.40;5.63;;;0.20;99.90;;;;;;5091522;28;20946;-49
2022/12/29 00:11:20;;;;;;;9.27;7.47;;;0.10;99.90;;;;;;5090351;28;20466;-48
2022/12/29 00:16:35;;;;;;;8.07;5.23;;;0.20;99.90;;;;;;5089753;28;20474;-48
2022/12/29 00:19:02;;;;;;;5.53;2.70;;;0.10;99.90;;;;;;5090029;28;20550;-48
2022/12/29 00:35:28;;;;;;;4.90;2.93;;;-0.40;99.90;;;;;;5093781;28;20513;-48
2022/12/29 00:46:10;;;;;;;7.50;4.07;;;0.40;99.90;;;;;;5093415;28;20812;-51
2022/12/29 00:51:23;;;;;;;7.10;3.73;;;0.10;99.90;;;;;;5095145;28;20466;-49
2022/12/29 00:53:50;;;;;;;4.70;2.43;;;0.00;99.90;;;;;;5094820;28;20460;-49
2022/12/29 00:56:17;;;;;;;2.27;2.07;;;0.10;99.90;;;;;;5095165;28;20504;-48
2022/12/29 00:58:44;;;;;;;2.30;2.10;;;0.40;99.90;;;;;;5094781;28;20439;-48
2022/12/29 01:01:11;;;;;;;3.63;3.10;;;0.40;99.90;;;;;;5094807;28;20538;-48
2022/12/29 01:03:39;;;;;;;3.40;2.70;;;0.30;99.90;;;;;;5094730;28;20550;-49
2022/12/29 01:06:08;;;;;;;4.57;2.87;;;0.20;99.90;;;;;;5093464;28;20471;-48
2022/12/29 01:08:35;;;;;;;3.50;2.10;;;0.40;99.90;;;;;;5093354;28;20467;-48
2022/12/29 01:11:03;;;;;;;2.40;1.50;;;0.50;99.90;;;;;;5093203;28;20523;-48
2022/12/29 01:13:31;;;;;;;1.93;1.30;;;0.70;99.90;;;;;;5092861;28;20463;-50
2022/12/29 01:15:58;;;;;;;2.50;1.30;;;0.50;99.90;;;;;;5092971;28;20475;-48
2022/12/29 01:18:26;;;;;;;1.40;1.20;;;0.20;99.90;;;;;;5092565;28;20551;-49
2022/12/29 01:21:00;;;;;;;2.30;1.10;;;0.30;99.90;;;;;;5092738;28;20436;-49
2022/12/29 01:23:26;;;;;;;2.73;1.60;;;0.20;99.90;;;;;;5093152;28;20546;-48
2022/12/29 01:25:53;;;;;;;4.63;2.90;;;0.20;99.90;;;;;;5094758;28;20436;-48
2022/12/29 01:28:20;;;;;;;2.33;1.37;;;0.30;99.90;;;;;;5094289;28;20911;-48
2022/12/29 01:30:47;;;;;;;2.17;1.13;;;0.30;99.90;;;;;;5093826;28;20478;-50
2022/12/29 01:33:14;;;;;;;1.53;1.00;;;0.60;99.90;;;;;;5093526;28;20542;-48
2022/12/29 01:35:41;;;;;;;2.17;1.23;;;0.50;99.90;;;;;;5094811;28;20439;-48
2022/12/29 01:38:09;;;;;;;1.83;1.10;;;0.40;99.90;;;;;;5094083;28;21061;-48
2022/12/29 01:40:45;;;;;;;1.53;1.43;;;0.00;99.90;;;;;;5094004;28;20956;-48
2022/12/29 01:43:14;;;;;;;1.87;1.33;;;-0.10;99.90;;;;;;5093619;28;20546;-48
2022/12/29 01:45:46;;;;;;;3.37;2.10;;;0.00;99.90;;;;;;5092605;28;20940;-48
2022/12/29 01:48:14;;;;;;;1.57;1.00;;;-0.20;99.90;;;;;;5092263;28;20472;-49
2022/12/29 01:50:46;;;;;;;1.70;1.17;;;-0.20;99.90;;;;;;5092352;28;20531;-48
2022/12/29 01:53:19;;;;;;;1.73;1.10;;;-0.20;99.90;;;;;;5092166;28;20460;-50
2022/12/29 01:55:49;;;;;;;1.63;1.33;;;0.00;99.90;;;;;;5092650;28;20892;-50
2022/12/29 01:58:18;;;;;;;2.43;0.90;;;0.20;99.90;;;;;;5092094;28;20547;-48
2022/12/29 02:00:45;;;;;;;1.67;1.30;;;0.10;99.90;;;;;;5093644;28;20963;-48
2022/12/29 02:03:13;;;;;;;2.40;2.00;;;0.10;99.90;;;;;;5093239;28;20576;-48
2022/12/29 02:05:46;;;;;;;2.67;2.23;;;0.00;99.90;;;;;;5093442;28;20475;-49
2022/12/29 02:08:15;;;;;;;2.67;2.00;;;-0.50;99.90;;;;;;5097485;28;20467;-48
2022/12/29 02:10:43;;;;;;;1.93;1.57;;;-0.40;99.90;;;;;;5114240;28;20673;-50
2022/12/29 02:13:10;;;;;;;2.30;1.20;;;-0.10;99.90;;;;;;5110668;28;20495;-48
2022/12/29 02:15:47;;;;;;;2.30;1.70;;;-0.10;99.90;;;;;;5098243;28;20526;-48
2022/12/29 02:18:26;;;;;;;1.83;1.17;;;0.00;99.90;;;;;;5109142;28;20499;-48
2022/12/29 02:21:22;;;;;;;1.50;1.03;;;-0.10;99.90;;;;;;5093188;28;20867;-48
2022/12/29 02:24:21;;;;;;;1.77;1.40;;;-0.20;99.90;;;;;;5096619;28;20543;-48
2022/12/29 02:27:21;;;;;;;1.60;1.43;;;0.20;99.90;;;;;;5092311;28;20497;-48
2022/12/29 02:30:14;;;;;;;2.20;1.50;;;0.20;99.90;;;;;;5072960;28;20533;-48
2022/12/29 02:32:51;;;;;;;2.80;1.30;;;0.00;99.90;;;;;;5102614;28;21025;-50
2022/12/29 02:35:26;;;;;;;1.47;1.17;;;-0.60;99.90;;;;;;5109883;28;20814;-48
2022/12/29 02:38:01;;;;;;;1.67;1.30;;;-0.50;99.90;;;;;;5111739;28;20473;-48
2022/12/29 02:40:36;;;;;;;2.80;1.20;;;-0.20;99.90;;;;;;5111726;28;20474;-50
2022/12/29 02:43:11;;;;;;;1.57;0.90;;;0.00;99.90;;;;;;5094065;28;20502;-49
2022/12/29 02:45:46;;;;;;;1.47;1.30;;;-0.10;99.90;;;;;;5101075;28;20525;-48
2022/12/29 02:48:20;;;;;;;1.67;1.23;;;-0.40;99.90;;;;;;5106040;28;20521;-48
2022/12/29 02:50:52;;;;;;;3.10;1.40;;;-0.30;99.90;;;;;;5092870;28;20533;-48
2022/12/29 02:54:40;;;;;;;1.73;1.30;;;0.10;99.90;;;;;;5071234;28;20543;-48
2022/12/29 02:56:07;;;;;;;9.57;4.97;;;0.10;99.90;;;;;;5092316;28;20814;-50
2022/12/29 02:58:34;;;;;;;2.47;2.27;;;-0.50;99.90;;;;;;5081914;28;20477;-49
2022/12/29 03:01:33;;;;;;;1.60;1.00;;;-0.40;99.90;;;;;;5111628;28;20474;-49
2022/12/29 03:04:20;;;;;;;1.53;1.40;;;-0.30;99.90;;;;;;5110223;28;20543;-48
2022/12/29 03:06:57;;;;;;;2.30;1.67;;;-0.10;99.90;;;;;;5110645;28;20522;-48
2022/12/29 03:09:35;;;;;;;5.43;2.47;;;-0.20;99.90;;;;;;5107686;28;21027;-49
2022/12/29 03:12:22;;;;;;;2.80;2.50;;;-0.40;99.90;;;;;;5110158;28;20447;-50
2022/12/29 03:17:56;;;;;;;3.30;2.73;;;-0.60;99.90;;;;;;5108508;28;20477;-50
2022/12/29 03:20:31;;;;;;;6.57;4.30;;;-0.50;99.90;;;;;;5069960;28;20509;-50
2022/12/29 03:23:02;;;;;;;5.37;3.97;;;-0.50;99.90;;;;;;5074346;28;20550;-48
2022/12/29 03:25:33;;;;;;;3.93;3.60;;;-0.70;99.90;;;;;;5110147;28;20467;-48
2022/12/29 03:28:04;;;;;;;5.10;2.80;;;-0.50;99.90;;;;;;5101532;28;20531;-48
2022/12/29 03:30:33;;;;;;;2.20;1.90;;;-0.30;99.90;;;;;;5094824;28;20467;-49
2022/12/29 03:33:03;;;;;;;2.80;1.57;;;-0.30;99.90;;;;;;5110981;28;20455;-49
2022/12/29 03:35:36;;;;;;;3.47;1.30;;;-0.20;99.90;;;;;;5102112;28;20520;-49
2022/12/29 03:38:11;;;;;;;1.57;1.30;;;-0.10;99.90;;;;;;5098874;28;20550;-50
2022/12/29 03:40:41;;;;;;;2.47;2.00;;;-0.10;99.90;;;;;;5105341;28;20440;-48
2022/12/29 03:43:09;;;;;;;2.60;1.73;;;-0.10;99.90;;;;;;5090446;28;20896;-48
2022/12/29 03:45:37;;;;;;;2.10;1.63;;;-0.10;99.90;;;;;;5090587;28;20466;-48
2022/12/29 03:48:05;;;;;;;2.73;1.70;;;-0.20;99.90;;;;;;5098655;28;20864;-48
2022/12/29 03:50:33;;;;;;;1.93;1.33;;;-0.20;99.90;;;;;;5110776;28;20513;-51
2022/12/29 03:53:00;;;;;;;1.97;1.37;;;-0.10;99.90;;;;;;5110984;28;20463;-48
2022/12/29 03:55:27;;;;;;;1.90;1.70;;;-0.10;99.90;;;;;;5110005;28;20478;-48
2022/12/29 03:57:54;;;;;;;1.40;1.10;;;-0.10;99.90;;;;;;5096811;28;20562;-48
2022/12/29 04:00:21;;;;;;;1.80;1.20;;;-0.10;99.90;;;;;;5110892;28;20534;-49
2022/12/29 04:02:48;;;;;;;3.23;1.77;;;-0.30;99.90;;;;;;5111073;28;20534;-48
2022/12/29 04:05:15;;;;;;;3.30;1.50;;;-0.40;99.90;;;;;;5109490;28;20868;-49
2022/12/29 04:07:43;;;;;;;3.87;1.90;;;-0.40;99.90;;;;;;5106604;28;20467;-48
2022/12/29 04:10:10;;;;;;;2.40;1.60;;;-0.10;99.90;;;;;;5089899;28;20464;-48
2022/12/29 04:12:37;;;;;;;4.07;1.57;;;-0.30;99.90;;;;;;5109378;28;20910;-50
2022/12/29 04:15:06;;;;;;;2.03;1.00;;;-0.10;99.90;;;;;;5110054;28;20517;-48
2022/12/29 04:17:33;;;;;;;1.70;1.17;;;-0.10;99.90;;;;;;5108555;28;20587;-49
2022/12/29 04:22:40;;;;;;;1.30;0.90;;;0.00;99.90;;;;;;5108996;28;20695;-48
2022/12/29 04:25:09;;;;;;;4.93;1.27;;;0.40;99.90;;;;;;5110793;28;20471;-48
2022/12/29 04:27:36;;;;;;;1.50;1.20;;;0.20;99.90;;;;;;5108104;28;20464;-49
2022/12/29 04:30:04;;;;;;;1.03;0.80;;;0.20;99.90;;;;;;5091184;28;20478;-50
2022/12/29 04:32:31;;;;;;;1.63;1.20;;;0.10;99.90;;;;;;5110249;28;20539;-49
2022/12/29 04:34:58;;;;;;;2.00;1.17;;;0.00;99.90;;;;;;5109826;28;20535;-48
2022/12/29 04:37:25;;;;;;;1.53;1.30;;;0.00;99.90;;;;;;5106603;28;20516;-49
2022/12/29 04:39:51;;;;;;;1.87;1.10;;;-0.20;99.90;;;;;;5089558;28;21152;-48
2022/12/29 04:42:20;;;;;;;1.40;1.27;;;-0.10;99.90;;;;;;5089410;28;20468;-48
2022/12/29 04:44:47;;;;;;;1.30;1.00;;;0.10;99.90;;;;;;5089446;28;20475;-48
2022/12/29 04:47:13;;;;;;;1.90;1.60;;;-0.10;99.90;;;;;;5090006;28;20949;-47
2022/12/29 04:49:40;;;;;;;2.03;1.40;;;-0.20;99.90;;;;;;5109701;28;20443;-48
2022/12/29 04:52:08;;;;;;;1.13;0.90;;;0.00;99.90;;;;;;5094770;28;20527;-48
2022/12/29 04:54:35;;;;;;;2.30;1.83;;;0.10;99.90;;;;;;5091072;28;20472;-48
2022/12/29 04:57:02;;;;;;;2.07;1.50;;;-0.20;99.90;;;;;;5090898;28;20925;-51
2022/12/29 04:59:30;;;;;;;2.43;1.33;;;-0.20;99.90;;;;;;5090655;28;20471;-50
2022/12/29 05:01:57;;;;;;;1.13;1.03;;;-0.20;99.90;;;;;;5100926;28;20547;-48
2022/12/29 05:04:24;;;;;;;2.13;1.20;;;-0.20;99.90;;;;;;5089795;28;20834;-49
2022/12/29 05:06:51;;;;;;;4.37;1.40;;;-0.20;99.90;;;;;;5089616;28;20468;-48
2022/12/29 05:09:18;;;;;;;1.80;1.70;;;-0.10;99.90;;;;;;5104353;28;20884;-49
2022/12/29 05:11:45;;;;;;;3.07;1.20;;;0.00;99.90;;;;;;5109259;28;20546;-49
2022/12/29 05:14:11;;;;;;;3.20;2.27;;;-0.20;99.90;;;;;;5109338;28;20497;-48
2022/12/29 05:16:40;;;;;;;3.23;2.10;;;-0.10;99.90;;;;;;5109941;28;20530;-48
2022/12/29 05:19:06;;;;;;;3.37;1.93;;;0.00;99.90;;;;;;5113176;28;20503;-48
2022/12/29 05:21:33;;;;;;;5.40;2.50;;;0.10;99.90;;;;;;5115009;28;20523;-49
2022/12/29 05:24:00;;;;;;;3.40;2.30;;;0.20;99.90;;;;;;5114364;28;20561;-48
2022/12/29 05:26:27;;;;;;;4.40;1.80;;;0.10;99.90;;;;;;5114726;28;20530;-48
2022/12/29 05:28:54;;;;;;;2.07;1.80;;;0.00;99.90;;;;;;5112998;28;20801;-48
2022/12/29 05:31:21;;;;;;;3.23;1.90;;;0.10;99.90;;;;;;5115069;28;20866;-48
2022/12/29 05:33:49;;;;;;;5.30;1.53;;;0.10;99.90;;;;;;5114489;28;20552;-48
2022/12/29 05:36:16;;;;;;;2.13;1.20;;;0.10;99.90;;;;;;5113842;28;20955;-51
2022/12/29 05:38:43;;;;;;;4.70;1.70;;;0.10;99.90;;;;;;5104719;28;20551;-48
2022/12/29 05:41:10;;;;;;;3.13;2.27;;;-0.10;99.90;;;;;;5092614;28;20471;-49
2022/12/29 05:43:37;;;;;;;3.00;1.70;;;-0.20;99.90;;;;;;5091957;28;20586;-48
2022/12/29 05:46:04;;;;;;;2.37;1.43;;;-0.10;99.90;;;;;;5092630;28;20468;-48
2022/12/29 05:48:31;;;;;;;3.10;1.83;;;0.00;99.90;;;;;;5093363;28;20497;-48
2022/12/29 05:51:00;;;;;;;2.70;1.70;;;0.10;99.90;;;;;;5092426;28;20945;-48
2022/12/29 05:53:26;;;;;;;2.40;1.57;;;0.30;99.90;;;;;;5093637;28;20542;-48
2022/12/29 05:55:53;;;;;;;2.57;1.50;;;0.10;99.90;;;;;;5094524;28;20470;-51
2022/12/29 05:58:21;;;;;;;2.17;1.87;;;0.10;99.90;;;;;;5101033;28;20561;-48
2022/12/29 06:00:48;;;;;;;2.93;1.30;;;0.20;99.90;;;;;;5112249;28;20808;-51
2022/12/29 06:03:14;;;;;;;5.00;4.00;;;0.20;99.90;;;;;;5091708;28;20548;-48
2022/12/29 06:05:41;;;;;;;4.30;3.90;;;0.30;99.90;;;;;;5092879;28;20523;-48
2022/12/29 06:08:10;;;;;;;5.87;2.90;;;-0.10;99.90;;;;;;5092703;28;20436;-48
2022/12/29 06:10:36;;;;;;;4.50;2.57;;;-0.20;99.90;;;;;;5092126;28;20527;-48
2022/12/29 06:13:05;;;;;;;4.30;2.53;;;-0.10;99.90;;;;;;5093705;28;20547;-48
2022/12/29 06:15:32;;;;;;;5.00;3.60;;;0.20;99.90;;;;;;5093126;28;20865;-48
2022/12/29 06:17:59;;;;;;;7.10;6.20;;;0.40;99.90;;;;;;5109630;28;20463;-50
2022/12/29 06:20:26;;;;;;;7.83;5.63;;;0.20;99.90;;;;;;5110676;28;20478;-48
2022/12/29 06:22:53;;;;;;;11.27;4.80;;;0.20;99.90;;;;;;5092045;28;20547;-45
2022/12/29 06:25:21;;;;;;;7.23;5.37;;;0.30;99.90;;;;;;5091406;28;20506;-48
2022/12/29 06:27:48;;;;;;;4.37;3.60;;;0.30;99.90;;;;;;5091467;28;20476;-49
2022/12/29 06:30:16;;;;;;;5.37;4.87;;;-0.40;99.90;;;;;;5105676;28;20471;-49
2022/12/29 06:32:43;;;;;;;5.13;4.20;;;-0.80;99.90;;;;;;5111194;28;20463;-48
2022/12/29 06:35:10;;;;;;;6.17;5.20;;;-0.90;99.90;;;;;;5109947;28;20530;-48
2022/12/29 06:37:37;;;;;;;4.53;4.10;;;-0.60;99.90;;;;;;5103748;28;20474;-49
2022/12/29 06:40:05;;;;;;;6.17;5.60;;;-0.30;99.90;;;;;;5110561;28;20551;-48
2022/12/29 06:42:33;;;;;;;2.57;2.30;;;-0.20;99.90;;;;;;5111412;28;20502;-48
2022/12/29 06:45:00;;;;;;;2.60;2.30;;;0.00;99.90;;;;;;5109744;28;20471;-50
2022/12/29 06:47:27;;;;;;;5.47;4.60;;;0.00;99.90;;;;;;5105657;28;20523;-48
2022/12/29 06:49:54;;;;;;;4.83;4.37;;;-0.60;99.90;;;;;;5091199;28;20526;-48
2022/12/29 06:52:23;;;;;;;7.40;4.37;;;-0.70;99.90;;;;;;5090893;28;20440;-48
2022/12/29 06:54:50;;;;;;;4.47;3.47;;;-0.70;99.90;;;;;;5090281;28;20470;-49
2022/12/29 06:57:17;;;;;;;4.20;3.63;;;-0.80;99.90;;;;;;5091647;28;20509;-50
2022/12/29 06:59:45;;;;;;;4.00;3.70;;;-0.50;99.90;;;;;;5092086;28;20558;-48
2022/12/29 07:02:14;;;;;;;2.97;2.30;;;-0.40;99.90;;;;;;5090530;28;20876;-48
2022/12/29 07:04:40;;;;;;;10.70;6.03;;;-0.60;99.90;;;;;;5089886;28;20452;-48
2022/12/29 07:07:07;;;;;;;3.60;3.30;;;-0.50;99.90;;;;;;5093116;28;21012;-48
2022/12/29 07:09:34;;;;;;;3.80;3.20;;;-0.30;99.90;;;;;;5090421;28;20556;-50
2022/12/29 07:12:01;;;;;;;3.80;2.90;;;-0.20;99.90;;;;;;5089300;28;20472;-49
2022/12/29 07:14:28;;;;;;;3.63;3.10;;;0.00;99.90;;;;;;5087646;28;20995;-49
2022/12/29 07:16:56;;;;;;;8.60;6.10;;;0.00;99.90;;;;;;5089654;28;20521;-48
2022/12/29 07:19:23;;;;;;;6.83;6.03;;;0.10;99.90;;;;;;5090357;28;20471;-48
2022/12/29 07:21:50;;;;;;;5.07;3.97;;;-0.20;99.90;;;;;;5090358;28;20511;-48
2022/12/29 07:24:17;;;;;;;13.27;6.53;;;-0.20;99.90;;;;;;5087715;28;20559;-48
2022/12/29 07:26:44;;;;;;;21.63;8.20;;;-0.10;99.90;;;;;;5088710;28;20535;-48
2022/12/29 07:29:11;;;;;;;16.07;6.40;;;-0.20;99.90;;;;;;5089327;28;20940;-50
2022/12/29 07:31:38;;;;;;;18.07;7.37;;;-0.10;99.90;;;;;;5088822;28;20468;-48
2022/12/29 07:34:06;;;;;;;11.97;8.57;;;0.10;99.90;;;;;;5088856;28;20491;-48
2022/12/29 07:36:33;;;;;;;13.40;8.60;;;-0.30;99.90;;;;;;5088066;28;20464;-47
2022/12/29 07:39:00;;;;;;;11.30;6.73;;;-0.50;99.90;;;;;;5089076;28;20210;-49
2022/12/29 07:41:27;;;;;;;12.27;8.23;;;-0.20;99.90;;;;;;5088984;28;20472;-48
2022/12/29 07:43:54;;;;;;;11.50;6.17;;;0.00;99.90;;;;;;5089139;28;20499;-46
2022/12/29 07:46:21;;;;;;;5.13;3.87;;;-0.10;99.90;;;;;;5088151;28;20472;-48
2022/12/29 07:48:47;;;;;;;5.40;4.17;;;0.00;99.90;;;;;;5087028;28;20477;-49
2022/12/29 07:51:16;;;;;;;7.93;6.07;;;0.00;99.90;;;;;;5088950;28;20515;-50
2022/12/29 07:53:43;;;;;;;10.47;6.87;;;0.20;99.90;;;;;;5087262;28;20555;-51
2022/12/29 07:56:09;;;;;;;11.43;7.27;;;0.30;99.90;;;;;;5089221;28;20519;-48
2022/12/29 07:58:36;;;;;;;8.07;6.47;;;0.20;99.90;;;;;;5088059;28;21016;-49
2022/12/29 08:01:03;;;;;;;7.60;6.20;;;0.20;99.90;;;;;;5086151;28;20485;-48
2022/12/29 08:03:30;;;;;;;11.97;6.93;;;0.40;99.90;;;;;;5087954;28;20495;-48
2022/12/29 08:05:58;;;;;;;7.03;6.43;;;0.40;99.90;;;;;;5087601;28;20476;-50
2022/12/29 08:08:26;;;;;;;6.47;5.20;;;0.50;99.90;;;;;;5091787;28;21047;-48
2022/12/29 08:10:53;;;;;;;9.77;7.00;;;0.70;99.90;;;;;;5088651;28;20475;-49
2022/12/29 08:13:20;;;;;;;7.70;6.90;;;0.60;99.90;;;;;;5091790;28;20563;-49
2022/12/29 08:15:47;;;;;;;6.23;5.17;;;0.60;99.90;;;;;;5088735;28;20467;-48
2022/12/29 08:18:14;;;;;;;6.77;6.00;;;0.70;99.90;;;;;;5089015;28;20527;-48
2022/12/29 08:20:40;;;;;;;11.63;8.70;;;0.70;99.90;;;;;;5088415;28;20511;-49
2022/12/29 08:23:07;;;;;;;14.73;9.30;;;0.50;99.90;;;;;;5086336;28;21055;-49
2022/12/29 08:25:36;;;;;;;10.03;9.00;;;0.20;99.90;;;;;;5090288;28;21006;-48
2022/12/29 08:28:03;;;;;;;7.13;6.43;;;0.00;99.90;;;;;;5082714;28;20941;-51
2022/12/29 08:30:29;;;;;;;7.70;5.20;;;0.40;99.90;;;;;;5091310;28;20524;-48
2022/12/29 08:32:56;;;;;;;10.20;8.33;;;0.70;99.90;;;;;;5090650;28;20491;-48
2022/12/29 08:35:24;;;;;;;9.80;6.17;;;0.90;99.90;;;;;;5093473;28;20535;-49
2022/12/29 08:37:51;;;;;;;12.50;9.07;;;0.70;99.90;;;;;;5089881;28;20443;-48
2022/12/29 08:40:18;;;;;;;10.60;5.47;;;0.70;99.90;;;;;;5090813;28;20503;-47
2022/12/29 08:42:46;;;;;;;5.63;4.80;;;0.80;99.90;;;;;;5094838;28;20505;-48
2022/12/29 08:45:13;;;;;;;6.15;5.10;;;0.80;99.90;;;;;;5089187;28;20524;-48
2022/12/29 08:47:40;;;;;;;7.10;5.87;;;1.00;99.90;;;;;;5089930;28;20285;-49
2022/12/29 08:50:08;;;;;;;6.30;4.70;;;1.00;99.90;;;;;;5090055;28;20527;-49
2022/12/29 08:52:34;;;;;;;4.80;3.57;;;1.00;99.90;;;;;;5092598;28;20530;-50
2022/12/29 08:55:01;;;;;;;3.10;2.40;;;1.10;99.90;;;;;;5093977;28;20530;-46
2022/12/29 08:57:28;;;;;;;9.20;5.83;;;1.30;99.90;;;;;;5094013;28;20464;-49
2022/12/29 08:59:56;;;;;;;12.47;7.27;;;1.20;99.90;;;;;;5093891;28;21019;-48
2022/12/29 09:02:23;;;;;;;8.50;7.47;;;0.60;99.90;;;;;;5093468;28;20547;-48
2022/12/29 09:04:50;;;;;;;7.53;5.77;;;0.30;99.90;;;;;;5093950;28;20469;-48
2022/12/29 09:07:17;;;;;;;6.27;5.63;;;0.40;99.90;;;;;;5094985;28;20531;-49
2022/12/29 09:09:44;;;;;;;7.57;6.40;;;0.70;99.90;;;;;;5094492;28;20475;-48
2022/12/29 09:12:11;;;;;;;12.37;8.30;;;0.30;99.90;;;;;;5093993;28;20475;-48
2022/12/29 09:14:38;;;;;;;12.93;7.23;;;0.10;99.90;;;;;;5093344;28;21098;-50
2022/12/29 09:19:50;;;;;;;12.07;7.80;;;0.30;99.90;;;;;;5093926;28;20605;-49
2022/12/29 09:22:17;;;;;;;9.23;8.30;;;0.40;99.90;;;;;;5092522;28;20471;-48
2022/12/29 09:24:44;;;;;;;12.20;9.50;;;0.60;99.90;;;;;;5092595;28;21011;-50
2022/12/29 09:27:11;;;;;;;9.20;7.90;;;0.50;99.90;;;;;;5094260;28;20505;-48
2022/12/29 09:29:38;;;;;;;8.47;7.57;;;0.50;99.90;;;;;;5093043;28;20432;-47
2022/12/29 09:32:07;;;;;;;13.17;11.23;;;0.50;99.90;;;;;;5089327;28;20494;-48
2022/12/29 09:34:34;;;;;;;8.63;7.47;;;0.80;99.90;;;;;;5090238;28;20483;-48
2022/12/29 09:37:00;;;;;;;8.03;5.90;;;1.10;99.90;;;;;;5087616;28;21035;-50
2022/12/29 09:39:27;;;;;;;14.07;10.40;;;1.30;99.90;;;;;;5090780;28;20472;-48
2022/12/29 09:42:02;;;;;;;15.40;12.20;;;1.00;99.90;;;;;;5090959;28;20891;-48
2022/12/29 09:44:43;;;;;;;14.90;9.93;;;0.70;99.90;;;;;;5088484;28;20526;-48
2022/12/29 09:47:15;;;;;;;12.53;8.57;;;0.70;99.90;;;;;;5088402;28;21037;-49
2022/12/29 09:49:47;;;;;;;10.43;8.40;;;0.70;99.90;;;;;;5089735;28;20539;-47
2022/12/29 09:52:17;;;;;;;14.60;10.73;;;0.70;99.90;;;;;;5090913;28;20488;-48
2022/12/29 09:54:54;;;;;;;13.37;10.97;;;0.90;99.90;;;;;;5088432;28;20515;-48
2022/12/29 09:57:25;;;;;;;14.63;10.03;;;1.00;99.90;;;;;;5091892;28;20444;-50
2022/12/29 09:59:57;;;;;;;10.30;8.90;;;1.10;99.90;;;;;;5091768;28;20510;-48
2022/12/29 10:02:37;;;;;;;13.40;8.30;;;1.10;99.90;;;;;;5091165;28;20471;-49
2022/12/29 10:05:13;;;;;;;11.50;7.90;;;1.30;99.90;;;;;;5091105;28;20465;-48
2022/12/29 10:07:46;;;;;;;9.83;6.77;;;1.20;99.90;;;;;;5093472;28;20475;-47
2022/12/29 10:10:23;;;;;;;4.70;4.20;;;1.40;99.90;;;;;;5093750;28;20462;-48
2022/12/29 10:13:01;;;;;;;4.60;4.13;;;1.80;99.90;;;;;;5078783;28;20550;-48
2022/12/29 10:15:40;;;;;;;8.23;7.43;;;1.80;99.90;;;;;;5092464;28;20468;-48
2022/12/29 10:18:27;;;;;;;6.40;5.80;;;1.60;99.90;;;;;;5092293;28;20471;-48
2022/12/29 10:20:58;;;;;;;5.00;4.00;;;1.60;99.90;;;;;;5091371;28;20913;-49
2022/12/29 10:23:32;;;;;;;4.10;3.07;;;1.70;99.90;;;;;;5091558;28;20921;-47
2022/12/29 10:26:02;;;;;;;3.30;2.90;;;2.00;99.90;;;;;;5087748;28;20576;-48
2022/12/29 10:28:37;;;;;;;3.27;2.70;;;2.20;99.90;;;;;;5085425;28;20467;-48
2022/12/29 10:31:09;;;;;;;5.07;4.57;;;2.40;99.90;;;;;;5087256;28;20436;-48
2022/12/29 10:33:40;;;;;;;5.50;5.00;;;2.50;99.90;;;;;;5086898;28;20487;-48
2022/12/29 10:36:16;;;;;;;7.47;6.00;;;2.60;99.90;;;;;;5088834;28;20841;-49
2022/12/29 10:38:51;;;;;;;5.63;5.03;;;2.60;99.90;;;;;;5088354;28;20490;-50
2022/12/29 10:41:22;;;;;;;5.97;4.53;;;2.80;99.90;;;;;;5087912;28;20463;-48
2022/12/29 10:43:51;;;;;;;5.63;4.40;;;3.10;99.90;;;;;;5085754;28;20938;-48
2022/12/29 10:46:21;;;;;;;5.17;4.50;;;3.20;99.90;;;;;;5088548;28;20527;-50
2022/12/29 10:48:50;;;;;;;7.60;5.40;;;3.30;99.90;;;;;;5086464;28;20535;-48
2022/12/29 10:51:21;;;;;;;9.57;6.70;;;3.20;99.90;;;;;;5089017;28;20524;-48
2022/12/29 10:53:52;;;;;;;7.37;5.20;;;3.20;99.90;;;;;;5086652;28;20463;-49
2022/12/29 10:56:28;;;;;;;5.03;3.93;;;3.20;99.90;;;;;;5089209;28;20517;-49
2022/12/29 10:58:57;;;;;;;4.80;3.97;;;3.30;99.90;;;;;;5087377;28;20854;-49
2022/12/29 11:01:33;;;;;;;5.83;4.27;;;3.30;99.90;;;;;;5089258;28;20558;-48
2022/12/29 11:04:04;;;;;;;4.43;3.60;;;3.40;99.90;;;;;;5089326;28;20487;-49
2022/12/29 11:06:31;;;;;;;5.73;3.30;;;3.50;99.90;;;;;;5089880;28;20955;-48
2022/12/29 11:09:03;;;;;;;4.17;3.77;;;3.60;99.90;;;;;;5091149;28;20798;-49
2022/12/29 11:11:35;;;;;;;6.07;4.27;;;3.70;99.90;;;;;;5091029;28;20471;-48
2022/12/29 11:14:11;;;;;;;7.27;5.17;;;3.80;99.90;;;;;;5090256;28;20464;-49
2022/12/29 11:16:38;;;;;;;6.80;4.47;;;3.90;99.90;;;;;;5090875;28;21035;-48
2022/12/29 11:19:06;;;;;;;6.00;3.70;;;4.00;99.90;;;;;;5090814;28;20525;-48
2022/12/29 11:21:39;;;;;;;4.20;3.37;;;4.00;99.90;;;;;;5090321;28;21287;-50
2022/12/29 11:24:19;;;;;;;5.40;3.90;;;4.10;99.90;;;;;;5091242;28;20459;-49
2022/12/29 11:26:46;;;;;;;3.70;2.97;;;4.20;99.90;;;;;;5091775;28;20517;-48
2022/12/29 11:29:28;;;;;;;4.13;3.03;;;4.20;99.90;;;;;;5091928;28;20477;-48
2022/12/29 11:31:58;;;;;;;4.37;3.70;;;4.20;99.90;;;;;;5092285;28;20436;-48
2022/12/29 11:34:32;;;;;;;4.80;3.83;;;4.30;99.90;;;;;;5091133;28;20464;-49
2022/12/29 11:37:02;;;;;;;4.77;4.13;;;4.30;99.90;;;;;;5091868;28;20510;-50
2022/12/29 11:39:34;;;;;;;4.20;3.80;;;4.30;99.90;;;;;;5091950;28;20811;-49
2022/12/29 11:42:02;;;;;;;5.20;4.00;;;4.40;99.90;;;;;;5091791;28;21068;-49
2022/12/29 11:44:36;;;;;;;5.87;4.90;;;4.50;99.90;;;;;;5091395;28;20461;-48
2022/12/29 11:47:03;;;;;;;5.60;5.00;;;4.60;99.90;;;;;;5091956;28;20503;-49
2022/12/29 11:49:32;;;;;;;5.23;4.17;;;4.60;99.90;;;;;;5091889;28;20474;-48
2022/12/29 11:51:58;;;;;;;5.70;4.03;;;4.70;99.90;;;;;;5091709;28;20477;-48
2022/12/29 11:54:30;;;;;;;3.70;3.27;;;4.70;99.90;;;;;;5091448;28;20458;-48
2022/12/29 11:56:59;;;;;;;5.47;4.10;;;4.70;99.90;;;;;;5091854;28;20470;-48
2022/12/29 11:59:42;;;;;;;9.90;7.13;;;4.80;99.90;;;;;;5091399;28;20533;-48
2022/12/29 12:02:37;;;;;;;16.37;10.97;;;4.80;99.90;;;;;;5089637;28;20499;-49
2022/12/29 12:05:14;;;;;;;14.20;9.57;;;4.80;99.90;;;;;;5091158;28;20871;-48
2022/12/29 12:07:43;;;;;;;8.67;7.50;;;4.90;99.90;;;;;;5091694;28;20465;-48
2022/12/29 12:10:20;;;;;;;8.10;5.50;;;5.00;99.90;;;;;;5091577;28;20517;-51
2022/12/29 12:12:52;;;;;;;7.30;5.90;;;5.00;99.90;;;;;;5071287;28;20554;-49
2022/12/29 12:15:26;;;;;;;6.10;4.80;;;5.00;99.90;;;;;;5075930;28;20521;-48
2022/12/29 12:17:59;;;;;;;5.37;4.10;;;5.00;99.90;;;;;;5091462;28;20473;-50
2022/12/29 12:20:39;;;;;;;5.77;4.70;;;5.00;99.90;;;;;;5091236;28;20471;-48
2022/12/29 12:23:18;;;;;;;5.20;4.70;;;5.10;99.90;;;;;;5091189;28;20542;-49
2022/12/29 12:25:54;;;;;;;7.83;4.33;;;5.10;99.90;;;;;;5092207;28;20453;-50
2022/12/29 12:28:29;;;;;;;4.93;4.43;;;5.20;99.90;;;;;;5095428;28;20437;-49
2022/12/29 12:30:58;;;;;;;6.87;4.20;;;;;;;;;;5095156;28;20438;-49
2022/12/29 12:33:31;;;;;;;6.30;3.97;;;5.30;99.90;;;;;;5094260;28;20898;-48
2022/12/29 12:36:15;;;;;;;5.10;3.30;;;5.30;99.90;;;;;;5090947;28;20464;-51
2022/12/29 12:38:50;;;;;;;4.67;4.10;;;5.40;99.90;;;;;;5092437;28;20439;-51
2022/12/29 12:41:26;;;;;;;3.40;2.93;;;5.30;99.90;;;;;;5093196;28;20586;-48
2022/12/29 12:44:02;;;;;;;6.17;4.80;;;5.40;99.90;;;;;;5091792;28;20558;-49
2022/12/29 12:47:03;;;;;;;10.37;6.90;;;5.50;99.90;;;;;;5092106;28;20449;-48
2022/12/29 12:50:18;;;;;;;6.53;5.83;;;5.40;99.90;;;;;;5055377;28;20970;-50
2022/12/29 12:53:05;;;;;;;7.10;6.10;;;5.40;99.90;;;;;;5029166;28;21004;-48
2022/12/29 12:55:45;;;;;;;9.50;5.80;;;5.40;99.90;;;;;;5085187;28;20475;-48
2022/12/29 12:58:20;;;;;;;8.40;6.13;;;5.40;99.90;;;;;;5092284;28;21021;-49
2022/12/29 13:01:03;;;;;;;6.10;5.40;;;5.40;99.90;;;;;;5091761;28;20535;-51
2022/12/29 13:03:45;;;;;;;5.47;4.93;;;5.30;99.90;;;;;;5091905;28;20509;-48
2022/12/29 13:06:23;;;;;;;5.43;4.73;;;5.30;99.90;;;;;;5091663;28;20537;-48
2022/12/29 13:09:22;;;;;;;5.50;4.43;;;5.40;99.90;;;;;;5091585;28;20489;-50
2022/12/29 13:12:00;;;;;;;6.00;4.50;;;5.40;99.90;;;;;;5092056;28;20448;-49
2022/12/29 13:14:43;;;;;;;8.87;6.17;;;5.40;99.90;;;;;;5072052;28;20490;-49
2022/12/29 13:17:16;;;;;;;8.30;6.10;;;5.50;99.90;;;;;;5071250;28;20974;-48
2022/12/29 13:19:49;;;;;;;5.50;5.00;;;5.60;99.90;;;;;;5071869;28;20566;-48
2022/12/29 13:22:22;;;;;;;6.00;4.77;;;5.60;99.90;;;;;;5071388;28;20507;-46
2022/12/29 13:25:03;;;;;;;4.90;4.40;;;5.60;99.90;;;;;;5080943;28;20530;-46
2022/12/29 13:27:38;;;;;;;5.20;4.17;;;5.70;99.90;;;;;;5091720;28;21024;-47
2022/12/29 13:30:10;;;;;;;3.40;2.90;;;5.50;99.90;;;;;;5091303;28;20536;-48
2022/12/29 13:32:50;;;;;;;3.80;3.00;;;5.50;99.90;;;;;;5090926;28;20523;-46
2022/12/29 13:35:41;;;;;;;5.30;3.77;;;5.60;99.90;;;;;;5091382;28;20471;-47
2022/12/29 13:38:13;;;;;;;5.07;3.40;;;5.70;99.90;;;;;;5088295;28;20439;-46
2022/12/29 13:40:46;;;;;;;12.33;9.30;;;5.80;99.90;;;;;;5091510;28;20897;-46
2022/12/29 13:43:15;;;;;;;6.10;5.50;;;5.80;99.90;;;;;;5090306;28;20471;-46
2022/12/29 13:45:43;;;;;;;6.73;4.77;;;5.80;99.90;;;;;;5091099;28;20516;-49
2022/12/29 13:48:18;;;;;;;6.63;4.57;;;5.70;99.90;;;;;;5090996;28;20455;-48